createdAt,value
2022-08-24T00:02:07.991Z,97188.91
2022-08-24T00:04:41.097Z,97187.25
2022-08-24T00:07:21.405Z,97194.91
2022-08-24T00:09:56.505Z,97187.78
2022-08-24T00:12:25.796Z,97184.66
2022-08-24T00:14:56.108Z,97186.28
2022-08-24T00:17:25.304Z,97189.41
2022-08-24T00:19:54.496Z,97181.91
2022-08-24T00:22:23.050Z,97179.16
2022-08-24T00:24:51.621Z,97186.38
2022-08-24T00:27:21.293Z,97191.81
2022-08-24T00:29:49.640Z,97185.84
2022-08-24T00:32:19.782Z,97186.91
2022-08-24T00:34:58.680Z,97182.63
2022-08-24T00:37:28.461Z,97183.88
2022-08-24T00:39:57.286Z,97185.50
2022-08-24T00:42:26.544Z,97180.41
2022-08-24T00:44:54.938Z,97189.25
2022-08-24T00:47:28.404Z,97185.78
2022-08-24T00:50:01.928Z,97185.22
2022-08-24T00:52:35.838Z,97183.09
2022-08-24T00:55:25.139Z,97186.47
2022-08-24T00:58:00.704Z,97187.53
2022-08-24T01:00:35.660Z,97187.00
2022-08-24T01:03:07.625Z,97186.38
2022-08-24T01:05:39.542Z,97189.50
2022-08-24T01:08:12.713Z,97177.03
2022-08-24T01:10:47.294Z,97184.97
2022-08-24T01:13:16.976Z,97186.47
2022-08-24T01:15:49.076Z,97187.00
2022-08-24T01:18:41.143Z,97183.94
2022-08-24T01:21:17.555Z,97188.56
2022-08-24T01:23:51.067Z,97186.97
2022-08-24T01:26:26.672Z,97190.63
2022-08-24T01:29:00.900Z,97186.09
2022-08-24T01:31:30.607Z,97184.25
2022-08-24T01:33:59.120Z,97186.81
2022-08-24T01:36:37.164Z,97182.81
2022-08-24T01:39:14.907Z,97182.88
2022-08-24T01:41:43.555Z,97176.22
2022-08-24T01:44:13.765Z,97175.88
2022-08-24T01:46:45.743Z,97185.00
2022-08-24T01:49:14.966Z,97176.47
2022-08-24T01:51:46.317Z,97179.78
2022-08-24T01:54:17.753Z,97170.09
2022-08-24T01:56:46.285Z,97170.44
2022-08-24T01:59:17.292Z,97173.97
2022-08-24T02:01:57.830Z,97159.91
2022-08-24T02:04:26.541Z,97171.31
2022-08-24T02:06:56.849Z,97172.38
2022-08-24T02:09:27.846Z,97171.06
2022-08-24T02:12:02.647Z,97172.53
2022-08-24T02:14:36.961Z,97176.78
2022-08-24T02:17:06.644Z,97177.56
2022-08-24T02:19:35.626Z,97169.50
2022-08-24T02:22:06.050Z,97169.06
2022-08-24T02:24:39.362Z,97171.28
2022-08-24T02:27:08.519Z,97170.91
2022-08-24T02:29:37.253Z,97172.28
2022-08-24T02:32:07.138Z,97173.53
2022-08-24T02:34:35.869Z,97179.47
2022-08-24T02:37:04.495Z,97174.59
2022-08-24T02:39:33.163Z,97178.38
2022-08-24T02:42:07.811Z,97182.56
2022-08-24T02:44:36.393Z,97181.19
2022-08-24T02:47:05.092Z,97174.69
2022-08-24T02:49:36.428Z,97178.09
2022-08-24T02:52:05.910Z,97175.59
2022-08-24T02:54:37.433Z,97187.66
2022-08-24T02:57:07.348Z,97184.31
2022-08-24T02:59:36.647Z,97186.38
2022-08-24T03:02:06.065Z,97189.81
2022-08-24T03:04:34.624Z,97183.75
2022-08-24T03:07:05.686Z,97180.13
2022-08-24T03:09:34.114Z,97174.63
2022-08-24T03:12:02.552Z,97178.03
2022-08-24T03:14:32.552Z,97182.75
2022-08-24T03:17:00.936Z,97183.56
2022-08-24T03:19:30.249Z,97176.22
2022-08-24T03:21:58.804Z,97180.94
2022-08-24T03:24:27.733Z,97185.03
2022-08-24T03:26:56.741Z,97177.94
2022-08-24T03:29:28.017Z,97177.69
2022-08-24T03:32:05.046Z,97173.97
2022-08-24T03:34:33.838Z,97180.47
2022-08-24T03:37:02.751Z,97180.47
2022-08-24T03:39:31.383Z,97183.47
2022-08-24T03:42:00.076Z,97183.63
2022-08-24T03:44:28.427Z,97177.69
2022-08-24T03:46:57.593Z,97180.09
2022-08-24T03:49:29.355Z,97186.50
2022-08-24T03:51:57.663Z,97189.84
2022-08-24T03:54:26.045Z,97191.00
2022-08-24T03:56:54.468Z,97196.53
2022-08-24T03:59:22.953Z,97201.78
2022-08-24T04:01:56.108Z,97199.47
2022-08-24T04:04:26.153Z,97193.53
2022-08-24T04:06:56.007Z,97195.81
2022-08-24T04:09:26.573Z,97201.69
2022-08-24T04:11:57.866Z,97202.91
2022-08-24T04:14:28.103Z,97202.47
2022-08-24T04:17:03.055Z,97201.69
2022-08-24T04:19:36.214Z,97204.63
2022-08-24T04:22:06.611Z,97205.56
2022-08-24T04:24:34.974Z,97211.06
2022-08-24T04:27:03.772Z,97205.44
2022-08-24T04:29:34.108Z,97207.72
2022-08-24T04:32:03.080Z,97208.09
2022-08-24T04:34:31.759Z,97213.69
2022-08-24T04:37:00.312Z,97211.28
2022-08-24T04:39:31.341Z,97209.13
2022-08-24T04:42:25.801Z,97217.84
2022-08-24T04:44:54.834Z,97214.41
2022-08-24T04:47:25.686Z,97217.41
2022-08-24T04:49:54.515Z,97213.03
2022-08-24T04:52:23.072Z,97220.72
2022-08-24T04:54:52.783Z,97217.59
2022-08-24T04:57:24.552Z,97212.88
2022-08-24T04:59:57.535Z,97224.06
2022-08-24T05:02:25.887Z,97219.19
2022-08-24T05:04:58.629Z,97226.06
2022-08-24T05:07:27.235Z,97231.53
2022-08-24T05:09:57.842Z,97230.09
2022-08-24T05:12:28.036Z,97235.31
2022-08-24T05:15:02.905Z,97234.78
2022-08-24T05:17:36.710Z,97234.16
2022-08-24T05:20:08.468Z,97237.63
2022-08-24T05:22:38.605Z,97235.44
2022-08-24T05:25:09.716Z,97228.59
2022-08-24T05:27:38.218Z,97231.84
2022-08-24T05:30:08.168Z,97236.81
2022-08-24T05:32:36.518Z,97234.78
2022-08-24T05:35:06.893Z,97236.22
2022-08-24T05:37:37.228Z,97244.03
2022-08-24T05:40:33.460Z,97239.44
2022-08-24T05:43:02.656Z,97253.84
2022-08-24T05:45:31.807Z,97257.22
2022-08-24T05:48:00.296Z,97247.66
2022-08-24T05:50:54.457Z,97255.41
2022-08-24T05:53:24.324Z,97258.25
2022-08-24T05:55:54.393Z,97265.09
2022-08-24T05:58:23.031Z,97263.34
2022-08-24T06:01:05.984Z,97273.56
2022-08-24T06:03:34.945Z,97267.66
2022-08-24T06:06:07.186Z,97267.59
2022-08-24T06:08:41.042Z,97269.44
2022-08-24T06:11:12.330Z,97269.97
2022-08-24T06:13:41.134Z,97256.31
2022-08-24T06:16:21.829Z,97262.75
2022-08-24T06:18:53.198Z,97262.84
2022-08-24T06:21:28.276Z,97267.72
2022-08-24T06:23:59.705Z,97266.16
2022-08-24T06:26:49.124Z,97256.25
2022-08-24T06:29:20.241Z,97265.88
2022-08-24T06:31:54.792Z,97270.72
2022-08-24T06:34:26.633Z,97271.13
2022-08-24T06:36:55.481Z,97261.97
2022-08-24T06:39:26.844Z,97268.28
2022-08-24T06:41:59.407Z,97270.69
2022-08-24T06:44:32.932Z,97269.09
2022-08-24T06:47:12.466Z,97265.78
2022-08-24T06:49:42.810Z,97270.44
2022-08-24T06:52:12.236Z,97272.44
2022-08-24T06:54:41.075Z,97276.75
2022-08-24T06:57:10.825Z,97281.97
2022-08-24T06:59:43.101Z,97279.63
2022-08-24T07:02:15.761Z,97286.41
2022-08-24T07:04:45.124Z,97291.13
2022-08-24T07:07:31.907Z,97294.13
2022-08-24T07:10:02.830Z,97288.06
2022-08-24T07:12:32.557Z,97301.03
2022-08-24T07:15:00.995Z,97306.72
2022-08-24T07:17:29.790Z,97306.25
2022-08-24T07:19:58.273Z,97302.16
2022-08-24T07:22:47.368Z,97297.81
2022-08-24T07:25:16.410Z,97304.31
2022-08-24T07:27:46.141Z,97298.44
2022-08-24T07:30:26.836Z,97292.78
2022-08-24T07:32:58.812Z,97295.06
2022-08-24T07:35:32.401Z,97301.41
2022-08-24T07:38:02.623Z,97299.22
2022-08-24T07:40:36.451Z,97290.38
2022-08-24T07:43:20.941Z,97293.50
2022-08-24T07:45:51.189Z,97297.72
2022-08-24T07:48:20.735Z,97298.03
2022-08-24T07:50:49.698Z,97300.63
2022-08-24T07:53:20.811Z,97302.84
2022-08-24T07:55:56.631Z,97300.13
2022-08-24T07:58:27.681Z,97298.28
2022-08-24T08:00:58.795Z,97297.81
2022-08-24T08:03:29.433Z,97290.72
2022-08-24T08:06:00.811Z,97299.59
2022-08-24T08:08:31.155Z,97293.91
2022-08-24T08:11:02.674Z,97293.88
2022-08-24T08:13:32.817Z,97296.94
2022-08-24T08:16:06.483Z,97291.09
2022-08-24T08:18:37.230Z,97284.97
2022-08-24T08:21:31.097Z,97287.25
2022-08-24T08:24:20.464Z,97287.91
2022-08-24T08:26:54.364Z,97289.63
2022-08-24T08:29:32.651Z,97288.31
2022-08-24T08:32:01.813Z,97284.72
2022-08-24T08:34:31.460Z,97279.47
2022-08-24T08:37:03.016Z,97285.00
2022-08-24T08:39:33.147Z,97289.00
2022-08-24T08:42:39.500Z,97279.06
2022-08-24T08:45:31.847Z,97284.91
2022-08-24T08:49:11.216Z,97283.81
2022-08-24T08:52:36.944Z,97287.75
2022-08-24T08:55:25.062Z,97279.81
2022-08-24T08:58:26.378Z,97280.50
2022-08-24T09:01:10.547Z,97284.78
2022-08-24T09:04:26.677Z,97282.94
2022-08-24T09:07:23.021Z,97285.31
2022-08-24T09:10:54.668Z,97286.75
2022-08-24T09:13:45.825Z,97289.13
2022-08-24T09:17:10.877Z,97292.09
2022-08-24T09:20:07.420Z,97291.44
2022-08-24T09:22:43.454Z,97301.78
2022-08-24T09:25:26.566Z,97287.53
2022-08-24T09:28:43.714Z,97289.44
2022-08-24T09:32:15.068Z,97291.50
2022-08-24T09:34:59.674Z,97279.84
2022-08-24T09:37:43.745Z,97286.38
2022-08-24T09:40:37.968Z,97275.59
2022-08-24T09:44:05.589Z,97279.84
2022-08-24T09:47:15.405Z,97286.97
2022-08-24T09:50:30.684Z,97282.53
2022-08-24T09:53:42.453Z,97284.09
2022-08-24T09:56:40.189Z,97268.28
2022-08-24T09:59:50.891Z,97279.66
2022-08-24T10:02:50.083Z,97268.44
2022-08-24T10:05:34.648Z,97269.66
2022-08-24T10:08:23.113Z,97267.72
2022-08-24T10:11:01.657Z,97273.31
2022-08-24T10:13:41.610Z,97268.28
2022-08-24T10:16:28.842Z,97257.69
2022-08-24T10:19:21.781Z,97255.03
2022-08-24T10:22:03.711Z,97261.50
2022-08-24T10:24:56.950Z,97261.19
2022-08-24T10:27:46.320Z,97261.22
2022-08-24T10:30:48.375Z,97260.13
2022-08-24T10:33:24.049Z,97252.81
2022-08-24T10:36:43.944Z,97250.59
2022-08-24T10:39:43.828Z,97240.94
2022-08-24T10:43:24.034Z,97245.75
2022-08-24T10:46:34.165Z,97241.34
2022-08-24T10:50:07.460Z,97243.41
2022-08-24T10:53:32.528Z,97239.97
2022-08-24T10:56:11.883Z,97241.94
2022-08-24T10:58:51.777Z,97244.50
2022-08-24T11:01:30.141Z,97240.84
2022-08-24T11:04:04.667Z,97242.75
2022-08-24T11:06:36.692Z,97243.84
2022-08-24T11:09:14.825Z,97236.69
2022-08-24T11:11:49.805Z,97246.09
2022-08-24T11:14:29.263Z,97248.19
2022-08-24T11:17:20.630Z,97252.69
2022-08-24T11:19:56.209Z,97242.97
2022-08-24T11:22:37.986Z,97242.72
2022-08-24T11:25:16.928Z,97234.75
2022-08-24T11:27:49.148Z,97237.47
2022-08-24T11:30:26.751Z,97235.91
2022-08-24T11:32:59.939Z,97224.25
2022-08-24T11:35:36.909Z,97230.00
2022-08-24T11:38:14.982Z,97229.63
2022-08-24T11:40:51.436Z,97225.00
2022-08-24T11:43:36.014Z,97221.41
2022-08-24T11:46:19.326Z,97227.22
2022-08-24T11:49:07.883Z,97229.28
2022-08-24T11:51:48.027Z,97224.22
2022-08-24T11:54:32.105Z,97230.34
2022-08-24T11:57:12.283Z,97228.31
2022-08-24T11:59:53.298Z,97228.84
2022-08-24T12:02:34.070Z,97219.97
2022-08-24T12:05:14.313Z,97225.09
2022-08-24T12:08:01.974Z,97223.91
2022-08-24T12:10:43.521Z,97226.38
2022-08-24T12:13:34.089Z,97230.66
2022-08-24T12:16:13.489Z,97229.69
2022-08-24T12:18:54.240Z,97220.16
2022-08-24T12:21:29.203Z,97220.63
2022-08-24T12:24:04.660Z,97217.28
2022-08-24T12:26:43.071Z,97215.56
2022-08-24T12:29:23.984Z,97224.25
2022-08-24T12:31:58.437Z,97206.09
2022-08-24T12:34:40.399Z,97207.78
2022-08-24T12:37:16.915Z,97207.16
2022-08-24T12:39:51.140Z,97215.28
2022-08-24T12:42:26.704Z,97210.38
2022-08-24T12:45:02.231Z,97207.25
2022-08-24T12:47:36.518Z,97211.63
2022-08-24T12:50:13.573Z,97206.31
2022-08-24T12:53:24.205Z,97213.50
2022-08-24T12:56:35.083Z,97197.81
2022-08-24T12:59:19.562Z,97210.63
2022-08-24T13:02:00.908Z,97205.66
2022-08-24T13:04:40.620Z,97207.09
2022-08-24T13:07:27.399Z,97206.41
2022-08-24T13:10:12.011Z,97206.16
2022-08-24T13:13:24.201Z,97201.38
2022-08-24T13:16:03.663Z,97202.97
2022-08-24T13:19:35.089Z,97199.91
2022-08-24T13:23:01.269Z,97202.34
2022-08-24T13:25:54.440Z,97189.38
2022-08-24T13:28:40.745Z,97192.91
2022-08-24T13:31:22.514Z,97196.47
2022-08-24T13:33:56.219Z,97188.22
2022-08-24T13:37:05.946Z,97186.56
2022-08-24T13:40:18.349Z,97189.13
2022-08-24T13:43:20.140Z,97185.25
2022-08-24T13:45:56.678Z,97188.66
2022-08-24T13:48:43.161Z,97186.56
2022-08-24T13:51:35.991Z,97189.34
2022-08-24T13:54:33.128Z,97183.88
2022-08-24T13:57:28.755Z,97186.50
2022-08-24T14:00:32.650Z,97190.59
2022-08-24T14:03:24.420Z,97186.25
2022-08-24T14:05:58.128Z,97175.09
2022-08-24T14:08:42.075Z,97177.16
2022-08-24T14:11:21.058Z,97182.56
2022-08-24T14:14:07.573Z,97178.38
2022-08-24T14:17:19.966Z,97178.84
2022-08-24T14:20:01.590Z,97187.31
2022-08-24T14:22:38.238Z,97183.88
2022-08-24T14:25:21.056Z,97169.69
2022-08-24T14:28:34.461Z,97174.56
2022-08-24T14:31:28.328Z,97172.25
2022-08-24T14:34:17.405Z,97175.50
2022-08-24T14:36:58.274Z,97164.94
2022-08-24T14:39:40.821Z,97160.59
2022-08-24T14:42:22.621Z,97165.63
2022-08-24T14:45:05.895Z,97162.03
2022-08-24T14:47:57.509Z,97164.72
2022-08-24T14:50:39.609Z,97158.75
2022-08-24T14:53:43.785Z,97157.53
2022-08-24T14:56:25.372Z,97168.28
2022-08-24T14:59:07.198Z,97161.13
2022-08-24T15:01:43.850Z,97167.81
2022-08-24T15:04:38.175Z,97159.13
2022-08-24T15:07:30.153Z,97163.22
2022-08-24T15:10:00.722Z,97158.09
2022-08-24T15:12:42.238Z,97157.44
2022-08-24T15:15:21.392Z,97154.63
2022-08-24T15:18:09.647Z,97149.78
2022-08-24T15:20:59.397Z,97145.22
2022-08-24T15:23:49.349Z,97137.25
2022-08-24T15:26:31.508Z,97148.22
2022-08-24T15:29:00.946Z,97138.28
2022-08-24T15:31:31.119Z,97136.47
2022-08-24T15:34:05.452Z,97144.03
2022-08-24T15:36:34.767Z,97138.50
2022-08-24T15:39:05.676Z,97140.88
2022-08-24T15:41:41.807Z,97139.66
2022-08-24T15:44:24.870Z,97143.59
2022-08-24T15:46:58.736Z,97149.91
2022-08-24T15:49:34.816Z,97145.75
2022-08-24T15:52:07.214Z,97152.16
2022-08-24T15:54:42.533Z,97139.84
2022-08-24T15:57:28.244Z,97151.16
2022-08-24T16:00:10.244Z,97143.66
2022-08-24T16:02:38.888Z,97147.91
2022-08-24T16:05:21.777Z,97147.78
2022-08-24T16:08:13.377Z,97149.81
2022-08-24T16:10:46.260Z,97143.03
2022-08-24T16:13:29.690Z,97140.66
2022-08-24T16:16:05.107Z,97152.66
2022-08-24T16:18:50.000Z,97145.28
2022-08-24T16:21:33.906Z,97143.50
2022-08-24T16:24:08.966Z,97147.16
2022-08-24T16:26:56.464Z,97145.19
2022-08-24T16:29:51.071Z,97147.72
2022-08-24T16:32:30.683Z,97144.84
2022-08-24T16:35:21.743Z,97140.16
2022-08-24T16:37:52.407Z,97144.53
2022-08-24T16:40:21.113Z,97145.84
2022-08-24T16:42:50.375Z,97146.53
2022-08-24T16:45:22.610Z,97146.88
2022-08-24T16:47:51.337Z,97155.22
2022-08-24T16:50:22.671Z,97151.78
2022-08-24T16:52:57.226Z,97154.00
2022-08-24T16:55:28.318Z,97147.94
2022-08-24T16:57:57.440Z,97156.47
2022-08-24T17:00:25.707Z,97157.47
2022-08-24T17:02:54.953Z,97148.03
2022-08-24T17:05:23.748Z,97157.34
2022-08-24T17:07:52.678Z,97158.66
2022-08-24T17:10:24.149Z,97160.75
2022-08-24T17:12:52.683Z,97164.03
2022-08-24T17:15:21.676Z,97159.75
2022-08-24T17:17:59.968Z,97163.78
2022-08-24T17:20:29.391Z,97169.38
2022-08-24T17:22:59.182Z,97159.81
2022-08-24T17:25:30.619Z,97167.06
2022-08-24T17:28:01.187Z,97163.88
2022-08-24T17:30:30.122Z,97161.50
2022-08-24T17:32:59.879Z,97155.59
2022-08-24T17:35:28.374Z,97158.03
2022-08-24T17:37:57.085Z,97159.66
2022-08-24T17:40:29.917Z,97159.25
2022-08-24T17:42:58.483Z,97157.28
2022-08-24T17:45:26.972Z,97159.25
2022-08-24T17:47:55.317Z,97154.09
2022-08-24T17:50:24.814Z,97161.25
2022-08-24T17:52:59.148Z,97153.28
2022-08-24T17:55:30.353Z,97163.22
2022-08-24T17:57:59.740Z,97158.44
2022-08-24T18:00:28.045Z,97159.59
2022-08-24T18:02:56.389Z,97166.31
2022-08-24T18:05:25.131Z,97156.34
2022-08-24T18:07:56.748Z,97161.84
2022-08-24T18:10:28.015Z,97162.22
2022-08-24T18:12:59.381Z,97162.22
2022-08-24T18:15:35.618Z,97160.59
2022-08-24T18:18:09.239Z,97164.09
2022-08-24T18:20:41.445Z,97165.25
2022-08-24T18:23:12.010Z,97167.19
2022-08-24T18:25:48.656Z,97160.81
2022-08-24T18:28:23.909Z,97166.28
2022-08-24T18:30:53.294Z,97175.25
2022-08-24T18:33:21.942Z,97175.19
2022-08-24T18:35:50.402Z,97183.06
2022-08-24T18:38:18.756Z,97179.88
2022-08-24T18:40:52.774Z,97189.34
2022-08-24T18:43:25.230Z,97190.03
2022-08-24T18:45:54.910Z,97189.63
2022-08-24T18:48:23.985Z,97193.97
2022-08-24T18:50:54.759Z,97203.84
2022-08-24T18:53:27.594Z,97196.69
2022-08-24T18:55:56.526Z,97203.03
2022-08-24T18:58:26.179Z,97201.03
2022-08-24T19:00:56.930Z,97205.75
2022-08-24T19:03:27.236Z,97202.53
2022-08-24T19:05:56.291Z,97195.75
2022-08-24T19:08:24.988Z,97202.44
2022-08-24T19:10:54.002Z,97207.25
2022-08-24T19:13:22.720Z,97201.69
2022-08-24T19:15:52.794Z,97207.56
2022-08-24T19:18:23.626Z,97207.94
2022-08-24T19:20:56.171Z,97217.13
2022-08-24T19:23:30.030Z,97215.94
2022-08-24T19:25:59.765Z,97215.16
2022-08-24T19:28:28.827Z,97207.63
2022-08-24T19:31:03.558Z,97208.91
2022-08-24T19:33:40.935Z,97207.72
2022-08-24T19:36:09.727Z,97200.13
2022-08-24T19:38:38.374Z,97213.53
2022-08-24T19:41:10.715Z,97210.31
2022-08-24T19:43:56.681Z,97213.78
2022-08-24T19:46:26.454Z,97216.16
2022-08-24T19:48:55.393Z,97217.81
2022-08-24T19:51:23.891Z,97215.69
2022-08-24T19:53:52.449Z,97206.47
2022-08-24T19:56:20.915Z,97209.19
2022-08-24T19:58:59.336Z,97209.56
2022-08-24T20:01:34.514Z,97219.56
2022-08-24T20:04:06.087Z,97221.50
2022-08-24T20:06:35.824Z,97215.53
2022-08-24T20:09:05.685Z,97214.69
2022-08-24T20:11:34.285Z,97212.69
2022-08-24T20:14:03.270Z,97212.97
2022-08-24T20:16:42.522Z,97208.91
2022-08-24T20:19:12.768Z,97212.78
2022-08-24T20:21:41.269Z,97209.53
2022-08-24T20:24:11.268Z,97212.69
2022-08-24T20:26:44.369Z,97213.91
2022-08-24T20:29:15.189Z,97214.28
2022-08-24T20:31:46.852Z,97221.69
2022-08-24T20:34:18.832Z,97218.47
2022-08-24T20:36:51.008Z,97219.31
2022-08-24T20:39:26.439Z,97223.69
2022-08-24T20:41:55.406Z,97217.28
2022-08-24T20:44:24.389Z,97221.16
2022-08-24T20:46:55.099Z,97216.44
2022-08-24T20:49:27.876Z,97226.91
2022-08-24T20:51:56.158Z,97217.22
2022-08-24T20:54:24.384Z,97219.72
2022-08-24T20:56:52.715Z,97232.75
2022-08-24T20:59:21.512Z,97224.38
2022-08-24T21:01:50.563Z,97225.56
2022-08-24T21:04:20.279Z,97227.53
2022-08-24T21:06:50.945Z,97220.78
2022-08-24T21:09:19.859Z,97217.63
2022-08-24T21:11:48.334Z,97226.34
2022-08-24T21:14:16.967Z,97220.03
2022-08-24T21:16:46.174Z,97224.75
2022-08-24T21:19:17.631Z,97225.03
2022-08-24T21:21:48.405Z,97230.06
2022-08-24T21:24:17.742Z,97233.16
2022-08-24T21:26:46.870Z,97234.78
2022-08-24T21:29:15.514Z,97220.44
2022-08-24T21:32:03.799Z,97226.25
2022-08-24T21:34:43.254Z,97223.47
2022-08-24T21:37:17.845Z,97226.63
2022-08-24T21:39:47.545Z,97223.81
2022-08-24T21:42:20.073Z,97221.44
2022-08-24T21:44:48.769Z,97220.91
2022-08-24T21:47:17.390Z,97212.47
2022-08-24T21:49:45.984Z,97216.97
2022-08-24T21:52:16.144Z,97220.16
2022-08-24T21:54:45.034Z,97213.38
2022-08-24T21:57:13.363Z,97215.63
2022-08-24T21:59:41.565Z,97215.56
2022-08-24T22:02:09.837Z,97210.50
2022-08-24T22:04:42.216Z,97210.59
2022-08-24T22:07:10.463Z,97215.44
2022-08-24T22:09:40.553Z,97212.69
2022-08-24T22:12:09.633Z,97206.78
2022-08-24T22:14:38.274Z,97205.84
2022-08-24T22:17:06.550Z,97211.81
2022-08-24T22:19:34.874Z,97208.97
2022-08-24T22:22:03.232Z,97212.13
2022-08-24T22:24:31.822Z,97210.13
2022-08-24T22:27:01.764Z,97207.84
2022-08-24T22:29:30.041Z,97207.06
2022-08-24T22:31:58.614Z,97197.56
2022-08-24T22:34:27.261Z,97197.78
2022-08-24T22:36:59.243Z,97192.25
2022-08-24T22:39:27.475Z,97192.94
2022-08-24T22:41:56.294Z,97195.66
2022-08-24T22:44:27.765Z,97191.59
2022-08-24T22:46:59.397Z,97192.84
2022-08-24T22:49:31.970Z,97188.94
2022-08-24T22:52:00.838Z,97186.66
2022-08-24T22:54:30.290Z,97187.75
2022-08-24T22:56:59.134Z,97185.81
2022-08-24T22:59:34.999Z,97177.44
2022-08-24T23:02:06.628Z,97181.22
2022-08-24T23:04:38.923Z,97180.38
2022-08-24T23:07:09.631Z,97168.94
2022-08-24T23:09:44.925Z,97173.50
2022-08-24T23:12:22.416Z,97171.72
2022-08-24T23:14:53.760Z,97171.72
2022-08-24T23:17:23.045Z,97172.88
2022-08-24T23:20:05.562Z,97172.78
2022-08-24T23:22:38.334Z,97179.06
2022-08-24T23:25:09.654Z,97174.31
2022-08-24T23:27:38.959Z,97178.19
2022-08-24T23:30:13.989Z,97172.53
2022-08-24T23:32:43.809Z,97172.13
2022-08-24T23:35:12.491Z,97176.41
2022-08-24T23:37:40.828Z,97173.59
2022-08-24T23:40:10.930Z,97174.41
2022-08-24T23:42:39.201Z,97166.84
2022-08-24T23:45:12.222Z,97171.16
2022-08-24T23:47:41.799Z,97164.81
2022-08-24T23:50:11.687Z,97169.06
2022-08-24T23:52:41.227Z,97159.16
2022-08-24T23:55:21.279Z,97153.16
2022-08-24T23:57:52.195Z,97158.72
